createdAt,value
2023-03-21T00:00:41.443Z,21.38
2023-03-21T00:03:08.813Z,20.63
2023-03-21T00:05:41.142Z,18.33
2023-03-21T00:08:08.050Z,22.13
2023-03-21T00:10:42.027Z,21.58
2023-03-21T00:13:12.974Z,21.27
2023-03-21T00:16:03.503Z,20.95
2023-03-21T00:18:32.555Z,21.13
2023-03-21T00:21:33.722Z,20.95
2023-03-21T00:23:49.068Z,22.35
2023-03-21T00:26:17.037Z,21.88
2023-03-21T00:28:43.828Z,22.30
2023-03-21T00:31:10.672Z,19.73
2023-03-21T00:33:39.017Z,21.38
2023-03-21T00:36:07.622Z,20.52
2023-03-21T00:38:35.452Z,22.27
2023-03-21T00:41:17.664Z,22.48
2023-03-21T00:43:47.925Z,21.50
2023-03-21T00:46:14.673Z,22.65
2023-03-21T00:48:41.534Z,21.80
2023-03-21T00:51:15.424Z,20.75
2023-03-21T00:53:42.751Z,21.25
2023-03-21T00:56:10.052Z,21.33
2023-03-21T00:58:36.675Z,23.42
2023-03-21T01:01:04.292Z,22.65
2023-03-21T01:03:31.344Z,23.10
2023-03-21T01:06:07.065Z,25.73
2023-03-21T01:08:58.139Z,25.00
2023-03-21T01:11:28.392Z,22.70
2023-03-21T01:14:07.180Z,23.45
2023-03-21T01:16:42.065Z,25.75
2023-03-21T01:19:23.878Z,24.75
2023-03-21T01:21:51.070Z,26.70
2023-03-21T01:24:17.686Z,26.63
2023-03-21T01:26:45.055Z,26.15
2023-03-21T01:29:11.729Z,26.55
2023-03-21T01:31:38.719Z,29.73
2023-03-21T01:34:06.868Z,29.08
2023-03-21T01:36:33.632Z,30.58
2023-03-21T01:39:06.033Z,31.58
2023-03-21T01:41:44.673Z,30.83
2023-03-21T01:44:29.724Z,31.75
2023-03-21T01:47:09.815Z,32.78
2023-03-21T01:49:54.876Z,32.70
2023-03-21T01:52:38.722Z,33.03
2023-03-21T01:55:12.247Z,32.10
2023-03-21T01:58:05.532Z,30.85
2023-03-21T02:00:56.820Z,29.55
2023-03-21T02:03:50.873Z,32.47
2023-03-21T02:06:52.847Z,31.55
2023-03-21T02:09:37.054Z,31.73
2023-03-21T02:12:08.658Z,29.40
2023-03-21T02:14:37.558Z,28.85
2023-03-21T02:17:28.534Z,29.45
2023-03-21T02:20:06.797Z,28.65
2023-03-21T02:23:11.568Z,28.58
2023-03-21T02:25:56.418Z,28.75
2023-03-21T02:28:31.487Z,28.17
2023-03-21T02:31:01.323Z,29.58
2023-03-21T02:33:47.237Z,26.20
2023-03-21T02:36:26.094Z,26.83
2023-03-21T02:39:00.808Z,25.40
2023-03-21T02:41:58.803Z,24.77
2023-03-21T02:44:41.453Z,25.67
2023-03-21T02:47:14.462Z,25.98
2023-03-21T02:50:06.973Z,23.63
2023-03-21T02:52:39.405Z,26.02
2023-03-21T02:57:48.462Z,23.92
2023-03-21T03:00:22.878Z,24.05
2023-03-21T03:02:54.520Z,25.13
2023-03-21T03:05:31.848Z,23.75
2023-03-21T03:08:07.854Z,25.10
2023-03-21T03:11:17.208Z,24.63
2023-03-21T03:13:53.803Z,25.25
2023-03-21T03:16:32.421Z,25.23
2023-03-21T03:19:01.082Z,24.80
2023-03-21T03:21:45.629Z,25.90
2023-03-21T03:24:20.390Z,24.65
2023-03-21T03:27:02.073Z,24.75
2023-03-21T03:29:32.635Z,24.33
2023-03-21T03:32:12.967Z,25.08
2023-03-21T03:34:49.550Z,25.83
2023-03-21T03:37:26.098Z,26.35
2023-03-21T03:42:43.398Z,24.00
2023-03-21T03:45:23.303Z,25.42
2023-03-21T03:47:59.767Z,26.15
2023-03-21T03:50:43.483Z,26.05
2023-03-21T03:53:25.593Z,24.58
2023-03-21T03:55:55.701Z,26.13
2023-03-21T03:58:33.459Z,26.77
2023-03-21T04:01:07.419Z,25.83
2023-03-21T04:03:48.428Z,27.08
2023-03-21T04:06:17.189Z,26.15
2023-03-21T04:08:44.565Z,25.42
2023-03-21T04:11:14.771Z,26.80
2023-03-21T04:13:45.550Z,25.48
2023-03-21T04:16:19.524Z,25.90
2023-03-21T04:18:47.599Z,26.45
2023-03-21T04:21:18.426Z,26.30
2023-03-21T04:23:45.385Z,25.75
2023-03-21T04:26:12.195Z,25.85
2023-03-21T04:28:44.141Z,27.10
2023-03-21T04:31:30.904Z,27.13
2023-03-21T04:34:12.178Z,26.60
2023-03-21T04:36:44.668Z,25.65
2023-03-21T04:39:12.841Z,28.48
2023-03-21T04:41:42.791Z,28.75
2023-03-21T04:44:10.283Z,26.83
2023-03-21T04:46:38.184Z,27.33
2023-03-21T04:49:06.933Z,28.65
2023-03-21T04:51:34.082Z,27.30
2023-03-21T04:54:00.777Z,30.02
2023-03-21T04:56:32.639Z,26.92
2023-03-21T04:59:02.363Z,28.38
2023-03-21T05:01:32.126Z,28.67
2023-03-21T05:04:00.181Z,28.00
2023-03-21T05:06:27.721Z,28.10
2023-03-21T05:08:56.649Z,27.23
2023-03-21T05:11:23.424Z,27.10
2023-03-21T05:13:50.085Z,27.40
2023-03-21T05:16:16.682Z,29.33
2023-03-21T05:18:44.452Z,26.77
2023-03-21T05:21:18.162Z,27.45
2023-03-21T05:23:54.248Z,27.23
2023-03-21T05:26:25.295Z,27.63
2023-03-21T05:28:59.034Z,28.73
2023-03-21T05:31:25.853Z,28.90
2023-03-21T05:34:03.785Z,28.15
2023-03-21T05:36:33.837Z,28.35
2023-03-21T05:39:02.117Z,28.58
2023-03-21T05:41:32.399Z,29.10
2023-03-21T05:44:03.722Z,30.45
2023-03-21T05:46:30.431Z,30.35
2023-03-21T05:48:57.368Z,29.98
2023-03-21T05:51:25.203Z,33.50
2023-03-21T05:53:52.289Z,32.72
2023-03-21T05:56:19.272Z,30.95
2023-03-21T05:58:50.657Z,31.02
2023-03-21T06:01:18.714Z,31.95
2023-03-21T06:03:53.633Z,30.63
2023-03-21T06:06:24.653Z,31.90
2023-03-21T06:08:54.286Z,31.13
2023-03-21T06:11:33.722Z,32.28
2023-03-21T06:14:20.173Z,30.30
2023-03-21T06:17:00.298Z,31.45
2023-03-21T06:19:27.415Z,29.73
2023-03-21T06:22:03.756Z,32.45
2023-03-21T06:24:32.817Z,30.20
2023-03-21T06:27:01.892Z,29.85
2023-03-21T06:29:36.055Z,31.48
2023-03-21T06:32:02.667Z,29.90
2023-03-21T06:34:29.655Z,31.60
2023-03-21T06:36:56.313Z,29.85
2023-03-21T06:39:28.576Z,30.27
2023-03-21T06:41:55.326Z,30.52
2023-03-21T06:44:22.647Z,30.92
2023-03-21T06:49:23.838Z,30.70
2023-03-21T06:51:50.696Z,29.48
2023-03-21T06:54:20.006Z,30.95
2023-03-21T06:56:57.115Z,29.67
2023-03-21T06:59:28.405Z,30.48
2023-03-21T07:02:01.202Z,32.80
2023-03-21T07:04:29.159Z,31.02
2023-03-21T07:06:57.230Z,31.75
2023-03-21T07:09:27.870Z,32.88
2023-03-21T07:11:57.838Z,32.90
2023-03-21T07:14:31.929Z,33.13
2023-03-21T07:16:58.630Z,33.80
2023-03-21T07:19:26.231Z,34.55
2023-03-21T07:21:53.355Z,36.58
2023-03-21T07:24:20.129Z,35.70
2023-03-21T07:26:46.930Z,34.92
2023-03-21T07:29:13.693Z,34.03
2023-03-21T07:31:40.696Z,37.28
2023-03-21T07:34:07.434Z,37.03
2023-03-21T07:36:34.231Z,33.78
2023-03-21T07:39:01.027Z,34.15
2023-03-21T07:41:27.725Z,34.35
2023-03-21T07:44:03.553Z,34.20
2023-03-21T07:46:33.286Z,34.72
2023-03-21T07:49:00.003Z,36.17
2023-03-21T07:51:29.197Z,35.05
2023-03-21T07:53:56.155Z,35.95
2023-03-21T07:56:22.873Z,35.53
2023-03-21T07:58:49.554Z,37.88
2023-03-21T08:01:16.361Z,37.95
2023-03-21T08:03:43.257Z,36.58
2023-03-21T08:06:10.415Z,34.50
2023-03-21T08:08:37.205Z,35.50
2023-03-21T08:11:05.230Z,34.97
2023-03-21T08:13:33.153Z,36.90
2023-03-21T08:15:59.887Z,38.53
2023-03-21T08:18:26.542Z,40.88
2023-03-21T08:20:54.238Z,37.42
2023-03-21T08:23:21.473Z,41.65
2023-03-21T08:25:52.816Z,36.55
2023-03-21T08:28:20.253Z,36.90
2023-03-21T08:30:47.713Z,39.97
2023-03-21T08:33:15.032Z,38.35
2023-03-21T08:35:42.177Z,43.08
2023-03-21T08:38:09.914Z,37.65
2023-03-21T08:40:37.013Z,38.47
2023-03-21T08:43:03.977Z,37.25
2023-03-21T08:45:30.917Z,37.75
2023-03-21T08:47:58.152Z,37.10
2023-03-21T08:50:27.793Z,37.97
2023-03-21T08:52:55.248Z,38.75
2023-03-21T08:55:22.382Z,39.25
2023-03-21T08:57:49.166Z,38.72
2023-03-21T09:00:20.512Z,37.17
2023-03-21T09:02:49.336Z,37.15
2023-03-21T09:05:16.917Z,38.22
2023-03-21T09:07:44.153Z,37.25
2023-03-21T09:10:20.587Z,37.67
2023-03-21T09:12:50.819Z,32.53
2023-03-21T09:15:20.070Z,36.75
2023-03-21T09:17:49.963Z,35.80
2023-03-21T09:20:20.769Z,37.33
2023-03-21T09:22:54.159Z,37.78
2023-03-21T09:25:21.606Z,36.90
2023-03-21T09:27:48.417Z,42.55
2023-03-21T09:30:21.089Z,40.97
2023-03-21T09:32:48.584Z,35.08
2023-03-21T09:35:18.523Z,35.58
2023-03-21T09:37:48.967Z,33.63
2023-03-21T09:40:34.888Z,32.70
2023-03-21T09:43:50.060Z,33.67
2023-03-21T09:46:31.927Z,33.75
2023-03-21T09:49:02.652Z,30.45
2023-03-21T09:51:36.002Z,32.85
2023-03-21T09:54:13.889Z,30.02
2023-03-21T09:56:42.979Z,28.70
2023-03-21T09:59:21.786Z,28.00
2023-03-21T10:01:49.403Z,28.90
2023-03-21T10:04:18.851Z,30.08
2023-03-21T10:06:50.927Z,27.38
2023-03-21T10:09:24.284Z,28.80
2023-03-21T10:12:08.212Z,26.45
2023-03-21T10:14:42.168Z,27.05
2023-03-21T10:17:22.464Z,28.15
2023-03-21T10:20:26.161Z,26.75
2023-03-21T10:22:57.955Z,25.70
2023-03-21T10:25:37.550Z,23.90
2023-03-21T10:28:07.003Z,23.38
2023-03-21T10:30:36.579Z,24.17
2023-03-21T10:33:09.606Z,22.95
2023-03-21T10:35:39.912Z,23.08
2023-03-21T10:38:11.111Z,25.45
2023-03-21T10:40:37.802Z,23.85
2023-03-21T10:43:29.870Z,22.85
2023-03-21T10:45:57.768Z,23.63
2023-03-21T10:48:25.545Z,24.33
2023-03-21T10:50:54.809Z,25.17
2023-03-21T10:53:32.180Z,22.85
2023-03-21T10:56:06.518Z,22.80
2023-03-21T10:58:39.449Z,25.08
2023-03-21T11:01:10.039Z,23.42
2023-03-21T11:03:43.400Z,21.35
2023-03-21T11:06:22.358Z,20.73
2023-03-21T11:08:53.746Z,20.23
2023-03-21T11:11:37.174Z,20.05
2023-03-21T11:14:07.391Z,23.10
2023-03-21T11:16:39.020Z,18.90
2023-03-21T11:19:16.179Z,23.45
2023-03-21T11:21:44.688Z,40.20
2023-03-21T11:24:17.098Z,20.52
2023-03-21T11:26:47.896Z,17.08
2023-03-21T11:29:23.517Z,16.42
2023-03-21T11:31:50.462Z,18.17
2023-03-21T11:34:34.450Z,17.42
2023-03-21T11:37:03.597Z,16.50
2023-03-21T11:39:37.395Z,17.23
2023-03-21T11:42:04.825Z,16.75
2023-03-21T11:44:35.023Z,16.63
2023-03-21T11:47:02.106Z,18.98
2023-03-21T11:49:28.744Z,18.08
2023-03-21T11:52:35.549Z,18.73
2023-03-21T11:55:22.594Z,15.05
2023-03-21T11:58:15.438Z,15.60
2023-03-21T12:00:54.747Z,16.30
2023-03-21T12:03:48.272Z,20.45
2023-03-21T12:06:45.610Z,15.13
2023-03-21T12:09:27.234Z,14.60
2023-03-21T12:12:14.424Z,16.67
2023-03-21T12:15:03.315Z,15.00
2023-03-21T12:17:43.519Z,14.70
2023-03-21T12:20:20.963Z,13.93
2023-03-21T12:22:50.595Z,13.70
2023-03-21T12:25:20.145Z,19.20
2023-03-21T12:28:04.831Z,14.55
2023-03-21T12:33:31.780Z,12.57
2023-03-21T12:36:14.167Z,12.75
2023-03-21T12:38:48.211Z,11.90
2023-03-21T12:41:23.928Z,12.77
2023-03-21T12:44:02.708Z,12.57
2023-03-21T12:46:48.751Z,12.63
2023-03-21T12:49:45.138Z,13.10
2023-03-21T12:52:21.762Z,11.10
2023-03-21T12:55:16.628Z,12.77
2023-03-21T12:57:57.434Z,12.00
2023-03-21T13:00:38.068Z,14.02
2023-03-21T13:03:10.700Z,14.88
2023-03-21T13:05:51.537Z,16.88
2023-03-21T13:08:23.385Z,14.55
2023-03-21T13:10:50.290Z,12.80
2023-03-21T13:13:41.245Z,13.38
2023-03-21T13:16:08.298Z,16.38
2023-03-21T13:19:06.485Z,14.55
2023-03-21T13:21:42.176Z,13.75
2023-03-21T13:24:37.625Z,13.80
2023-03-21T13:27:14.676Z,15.48
2023-03-21T13:29:50.268Z,15.15
2023-03-21T13:32:30.825Z,13.05
2023-03-21T13:35:13.706Z,13.50
2023-03-21T13:37:51.924Z,13.63
2023-03-21T13:40:26.899Z,14.25
2023-03-21T13:45:28.425Z,13.40
2023-03-21T13:47:58.906Z,13.23
2023-03-21T13:50:29.393Z,13.30
2023-03-21T13:53:02.207Z,11.32
2023-03-21T13:55:31.056Z,12.25
2023-03-21T13:57:57.791Z,11.80
2023-03-21T14:00:30.183Z,12.25
2023-03-21T14:03:08.893Z,14.50
2023-03-21T14:05:37.401Z,14.32
2023-03-21T14:08:15.400Z,13.38
2023-03-21T14:10:49.164Z,13.15
2023-03-21T14:13:20.089Z,11.77
2023-03-21T14:15:56.032Z,21.17
2023-03-21T14:18:35.129Z,21.55
2023-03-21T14:21:24.668Z,13.95
2023-03-21T14:24:05.036Z,15.20
2023-03-21T14:26:40.448Z,13.25
2023-03-21T14:29:19.141Z,11.95
2023-03-21T14:31:51.893Z,13.63
2023-03-21T14:34:20.109Z,12.93
2023-03-21T14:36:56.966Z,14.18
2023-03-21T14:39:31.128Z,12.48
2023-03-21T14:42:07.217Z,12.52
2023-03-21T14:44:53.387Z,12.32
2023-03-21T14:47:27.270Z,12.77
2023-03-21T14:49:54.332Z,11.95
2023-03-21T14:52:27.237Z,18.73
2023-03-21T14:54:55.713Z,11.52
2023-03-21T14:57:26.269Z,16.08
2023-03-21T14:59:54.782Z,12.60
2023-03-21T15:02:28.300Z,15.20
2023-03-21T15:04:57.584Z,11.32
2023-03-21T15:07:33.608Z,12.00
2023-03-21T15:10:07.312Z,16.80
2023-03-21T15:12:34.139Z,13.52
2023-03-21T15:15:02.952Z,11.15
2023-03-21T15:17:30.449Z,15.13
2023-03-21T15:19:57.232Z,13.82
2023-03-21T15:22:40.142Z,11.93
2023-03-21T15:25:12.595Z,12.80
2023-03-21T15:27:42.774Z,11.10
2023-03-21T15:30:21.199Z,15.00
2023-03-21T15:32:48.657Z,13.00
2023-03-21T15:35:21.029Z,9.50
2023-03-21T15:37:57.181Z,11.63
2023-03-21T15:40:32.416Z,9.32
2023-03-21T15:43:17.284Z,10.27
2023-03-21T15:45:55.425Z,11.77
2023-03-21T15:48:27.099Z,8.35
2023-03-21T15:51:01.708Z,10.05
2023-03-21T15:53:33.132Z,10.55
2023-03-21T15:56:02.505Z,8.77
2023-03-21T15:58:38.767Z,11.00
2023-03-21T16:01:10.633Z,9.10
2023-03-21T16:03:41.613Z,8.90
2023-03-21T16:06:11.398Z,9.32
2023-03-21T16:08:50.730Z,9.68
2023-03-21T16:11:26.266Z,10.63
2023-03-21T16:13:54.674Z,9.95
2023-03-21T16:16:28.066Z,11.07
2023-03-21T16:18:56.334Z,11.18
2023-03-21T16:21:31.472Z,10.68
2023-03-21T16:23:58.356Z,12.02
2023-03-21T16:26:31.324Z,11.40
2023-03-21T16:28:58.789Z,11.07
2023-03-21T16:31:30.750Z,12.00
2023-03-21T16:33:57.477Z,12.20
2023-03-21T16:36:27.113Z,12.05
2023-03-21T16:38:54.954Z,11.43
2023-03-21T16:41:23.114Z,10.27
2023-03-21T16:43:50.416Z,11.32
2023-03-21T16:46:20.326Z,11.52
2023-03-21T16:48:49.607Z,10.60
2023-03-21T16:51:31.420Z,11.02
2023-03-21T16:53:58.312Z,12.75
2023-03-21T16:56:38.248Z,12.80
2023-03-21T16:59:05.840Z,10.98
2023-03-21T17:01:32.754Z,12.45
2023-03-21T17:03:59.990Z,13.32
2023-03-21T17:06:29.106Z,11.45
2023-03-21T17:08:57.125Z,12.15
2023-03-21T17:11:25.672Z,16.42
2023-03-21T17:13:54.428Z,18.55
2023-03-21T17:16:26.685Z,16.02
2023-03-21T17:18:54.724Z,11.93
2023-03-21T17:21:27.616Z,14.77
2023-03-21T17:23:55.497Z,13.75
2023-03-21T17:26:25.580Z,13.30
2023-03-21T17:28:54.871Z,15.65
2023-03-21T17:31:23.516Z,17.92
2023-03-21T17:33:50.295Z,17.33
2023-03-21T17:36:21.116Z,16.58
2023-03-21T17:38:48.089Z,18.13
2023-03-21T17:41:17.988Z,16.90
2023-03-21T17:43:44.717Z,13.90
2023-03-21T17:46:17.048Z,13.98
2023-03-21T17:48:44.867Z,13.57
2023-03-21T17:51:14.670Z,14.05
2023-03-21T17:53:50.470Z,16.05
2023-03-21T17:56:37.472Z,14.55
2023-03-21T17:59:07.293Z,20.98
2023-03-21T18:01:35.254Z,15.27
2023-03-21T18:04:05.105Z,16.65
2023-03-21T18:06:34.150Z,20.10
2023-03-21T18:09:04.393Z,17.98
2023-03-21T18:11:31.069Z,24.38
2023-03-21T18:14:10.234Z,35.85
2023-03-21T18:16:42.181Z,33.53
2023-03-21T18:19:11.100Z,27.33
2023-03-21T18:21:40.405Z,22.23
2023-03-21T18:24:07.164Z,32.95
2023-03-21T18:26:33.867Z,41.40
2023-03-21T18:29:57.026Z,79.22
2023-03-21T18:32:04.314Z,57.72
2023-03-21T18:34:31.543Z,27.88
2023-03-21T18:36:58.280Z,29.88
2023-03-21T18:39:24.942Z,37.25
2023-03-21T18:41:52.428Z,73.05
2023-03-21T18:44:24.999Z,51.33
2023-03-21T18:46:51.919Z,43.80
2023-03-21T18:50:01.983Z,22.23
2023-03-21T18:52:06.532Z,33.63
2023-03-21T18:54:33.948Z,21.70
2023-03-21T18:59:47.534Z,126.07
2023-03-21T19:02:15.877Z,106.72
2023-03-21T19:04:43.407Z,127.28
2023-03-21T19:07:10.581Z,26.80
2023-03-21T19:10:15.925Z,63.78
2023-03-21T19:12:25.680Z,47.08
2023-03-21T19:14:52.349Z,47.13
2023-03-21T19:20:06.599Z,30.75
2023-03-21T19:22:33.291Z,29.90
2023-03-21T19:24:59.893Z,26.73
2023-03-21T19:27:26.939Z,19.90
2023-03-21T19:30:10.841Z,24.77
2023-03-21T19:32:40.477Z,26.27
2023-03-21T19:35:07.451Z,40.35
2023-03-21T19:37:36.138Z,47.55
2023-03-21T19:40:05.230Z,39.03
2023-03-21T19:42:32.310Z,32.30
2023-03-21T19:44:58.994Z,25.70
2023-03-21T19:47:26.172Z,35.25
2023-03-21T19:52:40.655Z,23.23
2023-03-21T19:55:08.164Z,26.58
2023-03-21T19:57:35.172Z,23.23
2023-03-21T20:00:02.215Z,24.08
2023-03-21T20:02:36.777Z,23.63
2023-03-21T20:05:05.919Z,26.98
2023-03-21T20:07:33.126Z,22.25
2023-03-21T20:10:00.223Z,20.23
2023-03-21T20:12:27.402Z,20.02
2023-03-21T20:15:06.986Z,22.55
2023-03-21T20:17:41.339Z,21.90
2023-03-21T20:20:14.382Z,19.30
2023-03-21T20:25:29.464Z,23.10
2023-03-21T20:28:12.764Z,28.60
2023-03-21T20:30:52.739Z,19.10
2023-03-21T20:33:19.561Z,17.10
2023-03-21T20:36:29.477Z,17.92
2023-03-21T20:38:34.092Z,19.58
2023-03-21T20:41:02.704Z,18.20
2023-03-21T20:46:17.413Z,20.40
2023-03-21T20:48:48.628Z,18.27
2023-03-21T20:52:24.201Z,21.02
2023-03-21T20:54:02.522Z,23.88
2023-03-21T20:56:30.414Z,22.63
2023-03-21T20:59:12.241Z,22.25
2023-03-21T21:01:43.046Z,19.00
2023-03-21T21:04:09.782Z,18.73
2023-03-21T21:06:36.885Z,17.55
2023-03-21T21:09:04.019Z,17.45
2023-03-21T21:14:17.557Z,16.30
2023-03-21T21:16:44.896Z,15.77
2023-03-21T21:19:11.558Z,17.27
2023-03-21T21:21:38.476Z,17.00
2023-03-21T21:24:07.719Z,17.33
2023-03-21T21:26:35.159Z,17.63
2023-03-21T21:29:01.826Z,27.70
2023-03-21T21:31:28.589Z,61.67
2023-03-21T21:33:55.603Z,50.83
2023-03-21T21:36:22.582Z,40.53
2023-03-21T21:38:49.507Z,49.17
2023-03-21T21:41:22.411Z,51.90
2023-03-21T21:43:49.021Z,46.47
2023-03-21T21:46:16.206Z,49.95
2023-03-21T21:48:43.851Z,39.88
2023-03-21T21:51:11.105Z,48.17
2023-03-21T21:53:38.741Z,38.47
2023-03-21T21:56:06.218Z,36.78
2023-03-21T21:58:33.636Z,23.92
2023-03-21T22:01:01.708Z,35.95
2023-03-21T22:03:36.222Z,37.95
2023-03-21T22:06:03.369Z,42.58
2023-03-21T22:08:30.016Z,24.38
2023-03-21T22:10:57.630Z,22.02
2023-03-21T22:13:24.268Z,23.30
2023-03-21T22:15:51.609Z,24.48
2023-03-21T22:18:18.442Z,20.75
2023-03-21T22:20:45.532Z,25.25
2023-03-21T22:23:12.251Z,27.88
2023-03-21T22:25:39.276Z,22.15
2023-03-21T22:28:06.320Z,31.73
2023-03-21T22:30:33.832Z,35.05
2023-03-21T22:33:09.356Z,32.03
2023-03-21T22:35:37.408Z,31.27
2023-03-21T22:38:04.067Z,29.17
2023-03-21T22:40:30.781Z,30.15
2023-03-21T22:42:57.453Z,35.10
2023-03-21T22:45:24.061Z,35.10
2023-03-21T22:47:51.187Z,24.23
2023-03-21T22:50:17.887Z,23.05
2023-03-21T22:52:44.664Z,23.05
2023-03-21T22:55:12.653Z,26.00
2023-03-21T22:57:39.269Z,29.30
2023-03-21T23:00:13.053Z,24.88
2023-03-21T23:02:42.733Z,28.55
2023-03-21T23:05:10.270Z,23.10
2023-03-21T23:07:37.618Z,22.52
2023-03-21T23:10:05.997Z,21.58
2023-03-21T23:12:32.983Z,20.75
2023-03-21T23:15:01.977Z,20.42
2023-03-21T23:17:28.875Z,21.08
2023-03-21T23:19:55.588Z,19.73
2023-03-21T23:22:22.208Z,21.23
2023-03-21T23:24:48.940Z,20.30
2023-03-21T23:27:17.899Z,19.95
2023-03-21T23:29:45.218Z,20.05
2023-03-21T23:32:11.832Z,20.20
2023-03-21T23:34:38.421Z,20.63
2023-03-21T23:37:06.647Z,19.92
2023-03-21T23:39:33.657Z,19.08
2023-03-21T23:42:01.021Z,19.40
2023-03-21T23:44:28.044Z,21.30
2023-03-21T23:46:55.140Z,21.40
2023-03-21T23:49:21.727Z,20.38
2023-03-21T23:51:49.933Z,21.83
2023-03-21T23:54:16.688Z,21.95
2023-03-21T23:56:43.375Z,22.00
2023-03-21T23:59:10.202Z,22.02
